createdAt,value
2023-01-27T00:01:43.997Z,3.88
2023-01-27T00:04:48.169Z,3.97
2023-01-27T00:07:52.237Z,4.03
2023-01-27T00:11:19.860Z,4.01
2023-01-27T00:14:25.144Z,4.04
2023-01-27T00:17:29.141Z,3.86
2023-01-27T00:20:50.385Z,3.69
2023-01-27T00:24:11.757Z,3.76
2023-01-27T00:27:17.488Z,3.85
2023-01-27T00:30:21.690Z,3.87
2023-01-27T00:33:27.718Z,3.99
2023-01-27T00:36:31.843Z,4.08
2023-01-27T00:39:36.181Z,4.03
2023-01-27T00:42:41.830Z,4.15
2023-01-27T00:45:52.874Z,3.84
2023-01-27T00:48:57.371Z,3.87
2023-01-27T00:52:01.441Z,3.70
2023-01-27T00:55:05.731Z,3.94
2023-01-27T00:58:11.330Z,4.03
2023-01-27T01:01:18.571Z,4.01
2023-01-27T01:04:22.847Z,4.19
2023-01-27T01:07:27.531Z,4.20
2023-01-27T01:10:31.849Z,3.79
2023-01-27T01:13:37.560Z,3.63
2023-01-27T01:16:41.549Z,3.80
2023-01-27T01:19:45.697Z,3.67
2023-01-27T01:22:49.674Z,3.87
2023-01-27T01:25:57.861Z,3.44
2023-01-27T01:29:03.477Z,3.76
2023-01-27T01:32:10.273Z,3.66
2023-01-27T01:35:14.239Z,3.83
2023-01-27T01:38:18.359Z,3.95
2023-01-27T01:41:22.750Z,4.12
2023-01-27T01:44:30.188Z,4.04
2023-01-27T01:47:36.779Z,4.14
2023-01-27T01:50:44.036Z,3.95
2023-01-27T01:53:53.369Z,4.18
2023-01-27T01:57:03.190Z,4.22
2023-01-27T02:00:10.786Z,4.19
2023-01-27T02:03:17.953Z,4.19
2023-01-27T02:06:22.968Z,4.11
2023-01-27T02:09:26.940Z,3.98
2023-01-27T02:12:30.947Z,4.13
2023-01-27T02:15:37.962Z,4.11
2023-01-27T02:18:43.032Z,4.17
2023-01-27T02:21:48.845Z,4.24
2023-01-27T02:24:59.981Z,4.35
2023-01-27T02:28:07.953Z,4.30
2023-01-27T02:31:11.945Z,4.37
2023-01-27T02:34:19.300Z,4.40
2023-01-27T02:37:25.015Z,4.41
2023-01-27T02:40:31.140Z,4.41
2023-01-27T02:43:36.866Z,4.20
2023-01-27T02:46:41.116Z,4.01
2023-01-27T02:49:45.116Z,4.15
2023-01-27T02:52:49.359Z,4.06
2023-01-27T02:55:54.099Z,4.39
2023-01-27T02:59:00.915Z,4.34
2023-01-27T03:02:23.293Z,4.55
2023-01-27T03:05:27.873Z,4.28
2023-01-27T03:08:31.836Z,4.50
2023-01-27T03:11:53.200Z,4.45
2023-01-27T03:15:16.174Z,4.42
2023-01-27T03:18:21.586Z,4.20
2023-01-27T03:21:26.404Z,4.37
2023-01-27T03:24:30.540Z,4.43
2023-01-27T03:27:38.613Z,4.12
2023-01-27T03:31:19.974Z,3.85
2023-01-27T03:34:38.333Z,4.27
2023-01-27T03:38:08.970Z,4.39
2023-01-27T03:41:30.206Z,4.38
2023-01-27T03:44:51.389Z,4.46
2023-01-27T03:47:56.880Z,4.52
2023-01-27T03:51:01.507Z,4.63
2023-01-27T03:54:05.780Z,4.71
2023-01-27T03:57:09.889Z,4.51
2023-01-27T04:00:15.256Z,4.66
2023-01-27T04:03:39.266Z,4.75
2023-01-27T04:07:01.067Z,4.84
2023-01-27T04:10:05.881Z,4.85
2023-01-27T04:13:08.779Z,4.77
2023-01-27T04:16:12.835Z,4.71
2023-01-27T04:19:18.819Z,4.71
2023-01-27T04:22:23.729Z,4.61
2023-01-27T04:25:27.830Z,4.63
2023-01-27T04:28:43.739Z,4.73
2023-01-27T04:31:49.559Z,4.69
2023-01-27T04:34:55.260Z,4.45
2023-01-27T04:37:59.240Z,4.57
2023-01-27T04:41:03.451Z,4.68
2023-01-27T04:44:08.522Z,4.50
2023-01-27T04:47:12.675Z,4.63
2023-01-27T04:50:19.298Z,4.70
2023-01-27T04:53:23.263Z,4.79
2023-01-27T04:56:31.005Z,4.48
2023-01-27T04:59:35.161Z,4.75
2023-01-27T05:02:39.322Z,4.66
2023-01-27T05:05:45.026Z,4.64
2023-01-27T05:08:49.667Z,4.66
2023-01-27T05:11:53.818Z,4.74
2023-01-27T05:14:57.723Z,4.87
2023-01-27T05:18:01.840Z,4.90
2023-01-27T05:21:08.679Z,4.87
2023-01-27T05:24:13.156Z,4.68
2023-01-27T05:27:18.169Z,4.54
2023-01-27T05:30:22.252Z,4.61
2023-01-27T05:33:26.573Z,4.61
2023-01-27T05:36:32.596Z,4.75
2023-01-27T05:39:36.720Z,4.59
2023-01-27T05:42:40.719Z,4.81
2023-01-27T05:45:44.862Z,4.72
2023-01-27T05:48:51.267Z,4.40
2023-01-27T05:51:56.940Z,4.79
2023-01-27T05:55:01.128Z,4.43
2023-01-27T05:58:05.091Z,4.74
2023-01-27T06:01:10.398Z,4.57
2023-01-27T06:04:14.360Z,4.78
2023-01-27T06:07:19.896Z,4.72
2023-01-27T06:10:23.959Z,4.72
2023-01-27T06:13:28.511Z,4.75
2023-01-27T06:16:32.582Z,4.81
2023-01-27T06:19:36.786Z,4.82
2023-01-27T06:22:42.598Z,4.78
2023-01-27T06:25:47.966Z,4.69
2023-01-27T06:28:52.288Z,4.78
2023-01-27T06:31:56.458Z,4.62
2023-01-27T06:35:00.651Z,4.64
2023-01-27T06:38:08.126Z,4.75
2023-01-27T06:41:12.336Z,4.80
2023-01-27T06:44:16.545Z,4.99
2023-01-27T06:47:20.618Z,4.98
2023-01-27T06:50:25.156Z,5.00
2023-01-27T06:53:31.753Z,4.92
2023-01-27T06:56:35.908Z,4.97
2023-01-27T06:59:41.226Z,4.75
2023-01-27T07:02:45.871Z,4.99
2023-01-27T07:05:49.975Z,4.62
2023-01-27T07:08:55.720Z,4.86
2023-01-27T07:12:00.135Z,5.00
2023-01-27T07:15:04.226Z,4.71
2023-01-27T07:18:08.870Z,5.04
2023-01-27T07:21:13.137Z,5.28
2023-01-27T07:24:19.503Z,4.99
2023-01-27T07:27:23.812Z,5.12
2023-01-27T07:30:28.445Z,5.17
2023-01-27T07:33:32.514Z,5.24
2023-01-27T07:36:36.562Z,5.25
2023-01-27T07:39:42.666Z,5.34
2023-01-27T07:42:46.755Z,5.30
2023-01-27T07:45:57.163Z,5.00
2023-01-27T07:49:01.281Z,5.13
2023-01-27T07:52:05.922Z,4.96
2023-01-27T07:55:12.334Z,5.41
2023-01-27T07:58:17.008Z,5.53
2023-01-27T08:01:21.224Z,5.45
2023-01-27T08:04:25.261Z,5.50
2023-01-27T08:07:29.366Z,5.52
2023-01-27T08:10:35.005Z,5.46
2023-01-27T08:13:39.291Z,5.45
2023-01-27T08:16:43.414Z,5.48
2023-01-27T08:19:48.887Z,5.33
2023-01-27T08:22:52.991Z,4.80
2023-01-27T08:26:00.706Z,5.00
2023-01-27T08:29:04.789Z,5.17
2023-01-27T08:32:08.889Z,5.43
2023-01-27T08:35:13.009Z,5.65
2023-01-27T08:38:19.169Z,5.79
2023-01-27T08:41:27.320Z,6.02
2023-01-27T08:44:31.374Z,6.01
2023-01-27T08:47:35.556Z,5.84
2023-01-27T08:50:39.610Z,5.98
2023-01-27T08:53:43.985Z,5.91
2023-01-27T08:56:49.564Z,5.58
2023-01-27T08:59:53.647Z,5.56
2023-01-27T09:02:57.804Z,5.65
2023-01-27T09:06:01.968Z,5.43
2023-01-27T09:09:12.476Z,5.32
2023-01-27T09:12:18.666Z,5.50
2023-01-27T09:15:23.432Z,5.31
2023-01-27T09:18:27.505Z,5.56
2023-01-27T09:21:31.895Z,5.56
2023-01-27T09:24:35.972Z,5.60
2023-01-27T09:27:41.547Z,5.74
2023-01-27T09:30:46.802Z,5.81
2023-01-27T09:33:50.954Z,5.90
2023-01-27T09:36:58.205Z,5.91
2023-01-27T09:40:04.775Z,6.03
2023-01-27T09:43:25.722Z,6.10
2023-01-27T09:46:50.618Z,6.16
2023-01-27T09:50:09.812Z,6.18
2023-01-27T09:53:32.290Z,6.20
2023-01-27T09:56:48.476Z,5.99
2023-01-27T10:00:09.222Z,6.06
2023-01-27T10:03:51.573Z,6.00
2023-01-27T10:07:10.214Z,5.83
2023-01-27T10:10:27.508Z,5.80
2023-01-27T10:13:39.606Z,5.91
2023-01-27T10:16:59.274Z,6.09
2023-01-27T10:20:23.384Z,6.12
2023-01-27T10:23:39.893Z,5.95
2023-01-27T10:26:48.686Z,6.06
2023-01-27T10:29:59.663Z,6.18
2023-01-27T10:33:14.846Z,6.10
2023-01-27T10:36:27.546Z,6.24
2023-01-27T10:39:40.286Z,6.22
2023-01-27T10:42:51.830Z,6.19
2023-01-27T10:46:02.784Z,6.20
2023-01-27T10:49:12.960Z,6.35
2023-01-27T10:52:22.466Z,6.22
2023-01-27T10:55:31.459Z,6.38
2023-01-27T10:58:49.654Z,6.33
2023-01-27T11:01:58.203Z,6.28
2023-01-27T11:05:09.354Z,6.48
2023-01-27T11:08:17.737Z,6.48
2023-01-27T11:11:43.660Z,6.52
2023-01-27T11:14:49.666Z,6.57
2023-01-27T11:17:58.858Z,6.67
2023-01-27T11:21:07.421Z,6.96
2023-01-27T11:24:23.201Z,6.97
2023-01-27T11:27:54.315Z,6.94
2023-01-27T11:31:13.402Z,7.02
2023-01-27T11:34:24.616Z,7.05
2023-01-27T11:37:34.034Z,6.84
2023-01-27T11:40:41.491Z,6.72
2023-01-27T11:43:45.617Z,6.48
2023-01-27T11:46:51.142Z,6.74
2023-01-27T11:49:56.157Z,6.55
2023-01-27T11:53:13.008Z,6.87
2023-01-27T11:56:20.906Z,6.83
2023-01-27T11:59:28.568Z,6.83
2023-01-27T12:02:38.535Z,6.76
2023-01-27T12:05:47.144Z,6.83
2023-01-27T12:08:52.787Z,6.68
2023-01-27T12:12:12.871Z,6.91
2023-01-27T12:15:18.565Z,6.86
2023-01-27T12:18:24.132Z,6.85
2023-01-27T12:21:47.464Z,7.14
2023-01-27T12:24:57.692Z,7.14
2023-01-27T12:28:05.809Z,6.96
2023-01-27T12:31:15.004Z,7.07
2023-01-27T12:34:35.199Z,7.09
2023-01-27T12:37:40.573Z,7.20
2023-01-27T12:40:49.349Z,7.24
2023-01-27T12:43:55.875Z,7.20
2023-01-27T12:47:05.653Z,7.36
2023-01-27T12:50:25.449Z,7.49
2023-01-27T12:53:29.716Z,7.42
2023-01-27T12:56:36.588Z,7.50
2023-01-27T12:59:50.158Z,7.20
2023-01-27T13:03:00.717Z,7.24
2023-01-27T13:06:04.973Z,7.21
2023-01-27T13:09:26.962Z,7.09
2023-01-27T13:12:51.372Z,7.20
2023-01-27T13:15:59.459Z,7.02
2023-01-27T13:19:03.687Z,7.11
2023-01-27T13:22:09.307Z,7.09
2023-01-27T13:25:20.743Z,7.21
2023-01-27T13:28:31.817Z,7.11
2023-01-27T13:31:47.667Z,7.07
2023-01-27T13:34:56.733Z,7.17
2023-01-27T13:38:06.422Z,7.11
2023-01-27T13:41:16.868Z,7.11
2023-01-27T13:44:29.198Z,7.03
2023-01-27T13:47:52.988Z,7.06
2023-01-27T13:51:03.971Z,7.07
2023-01-27T13:54:08.174Z,7.02
2023-01-27T13:57:36.121Z,6.99
2023-01-27T14:00:53.420Z,6.94
2023-01-27T14:04:17.234Z,6.80
2023-01-27T14:07:34.027Z,6.84
2023-01-27T14:10:42.504Z,6.73
2023-01-27T14:13:59.751Z,6.87
2023-01-27T14:17:17.002Z,6.80
2023-01-27T14:20:35.962Z,6.81
2023-01-27T14:23:48.359Z,6.71
2023-01-27T14:26:57.229Z,6.80
2023-01-27T14:30:11.847Z,6.64
2023-01-27T14:33:29.860Z,6.69
2023-01-27T14:36:39.193Z,6.77
2023-01-27T14:39:49.309Z,6.83
2023-01-27T14:43:13.674Z,6.77
2023-01-27T14:46:47.266Z,6.78
2023-01-27T14:50:05.796Z,6.90
2023-01-27T14:53:33.266Z,6.79
2023-01-27T14:56:47.419Z,6.74
2023-01-27T15:00:05.184Z,6.77
2023-01-27T15:03:34.933Z,6.73
2023-01-27T15:06:48.967Z,6.86
2023-01-27T15:10:06.456Z,6.65
2023-01-27T15:13:33.453Z,6.76
2023-01-27T15:17:07.139Z,6.76
2023-01-27T15:20:43.809Z,6.73
2023-01-27T15:24:09.485Z,6.75
2023-01-27T15:27:14.162Z,6.68
2023-01-27T15:30:25.959Z,6.60
2023-01-27T15:33:53.653Z,6.73
2023-01-27T15:37:03.678Z,6.70
2023-01-27T15:40:18.024Z,6.74
2023-01-27T15:43:23.803Z,6.52
2023-01-27T15:46:32.965Z,6.73
2023-01-27T15:49:42.980Z,6.70
2023-01-27T15:52:49.380Z,6.60
2023-01-27T15:55:57.400Z,6.66
2023-01-27T15:59:07.082Z,6.38
2023-01-27T16:02:18.890Z,6.69
2023-01-27T16:05:27.919Z,6.64
2023-01-27T16:08:39.400Z,6.80
2023-01-27T16:11:45.290Z,6.71
2023-01-27T16:14:49.509Z,6.70
2023-01-27T16:18:03.084Z,6.63
2023-01-27T16:21:08.725Z,6.72
2023-01-27T16:24:23.205Z,6.72
2023-01-27T16:27:43.396Z,6.78
2023-01-27T16:30:50.856Z,6.85
2023-01-27T16:33:59.103Z,6.79
2023-01-27T16:37:16.206Z,6.72
2023-01-27T16:40:24.736Z,6.70
2023-01-27T16:43:34.274Z,6.55
2023-01-27T16:46:43.101Z,6.73
2023-01-27T16:49:49.069Z,6.65
2023-01-27T16:52:53.285Z,6.62
2023-01-27T16:55:59.211Z,6.59
2023-01-27T16:59:08.628Z,6.50
2023-01-27T17:02:20.571Z,6.77
2023-01-27T17:05:24.978Z,6.67
2023-01-27T17:08:35.646Z,6.56
2023-01-27T17:11:39.852Z,6.45
2023-01-27T17:14:48.563Z,6.56
2023-01-27T17:17:53.524Z,6.50
2023-01-27T17:20:58.615Z,6.59
2023-01-27T17:24:09.350Z,6.54
2023-01-27T17:27:26.113Z,6.47
2023-01-27T17:30:37.211Z,6.54
2023-01-27T17:33:41.426Z,6.58
2023-01-27T17:37:14.197Z,6.58
2023-01-27T17:40:22.317Z,6.51
2023-01-27T17:43:32.608Z,6.41
2023-01-27T17:46:38.489Z,6.59
2023-01-27T17:49:43.425Z,6.47
2023-01-27T17:52:52.527Z,6.36
2023-01-27T17:55:58.035Z,6.46
2023-01-27T17:59:07.792Z,6.37
2023-01-27T18:02:20.901Z,6.47
2023-01-27T18:05:30.562Z,6.59
2023-01-27T18:08:36.427Z,6.46
2023-01-27T18:11:40.616Z,6.44
2023-01-27T18:14:44.813Z,6.30
2023-01-27T18:18:01.390Z,6.34
2023-01-27T18:21:13.755Z,6.45
2023-01-27T18:24:22.539Z,6.50
2023-01-27T18:27:30.614Z,6.52
2023-01-27T18:30:35.266Z,6.34
2023-01-27T18:33:42.939Z,6.58
2023-01-27T18:36:53.905Z,6.44
2023-01-27T18:40:00.524Z,6.36
2023-01-27T18:43:05.948Z,6.30
2023-01-27T18:46:12.979Z,6.39
2023-01-27T18:49:18.529Z,6.31
2023-01-27T18:52:23.138Z,6.26
2023-01-27T18:55:29.138Z,6.29
2023-01-27T18:58:33.300Z,6.28
2023-01-27T19:01:37.436Z,6.22
2023-01-27T19:04:43.101Z,6.13
2023-01-27T19:07:47.684Z,6.12
2023-01-27T19:10:52.859Z,6.12
2023-01-27T19:13:56.891Z,6.09
2023-01-27T19:17:01.032Z,5.96
2023-01-27T19:20:15.276Z,6.04
2023-01-27T19:23:21.713Z,6.10
2023-01-27T19:26:26.186Z,5.84
2023-01-27T19:29:30.383Z,5.96
2023-01-27T19:32:34.325Z,5.97
2023-01-27T19:35:40.910Z,5.97
2023-01-27T19:38:45.044Z,6.14
2023-01-27T19:41:49.105Z,6.17
2023-01-27T19:44:53.300Z,6.02
2023-01-27T19:47:59.972Z,6.08
2023-01-27T19:51:05.641Z,6.04
2023-01-27T19:54:10.595Z,5.91
2023-01-27T19:57:17.280Z,6.05
2023-01-27T20:00:27.293Z,5.98
2023-01-27T20:03:31.804Z,6.05
2023-01-27T20:06:37.273Z,5.97
2023-01-27T20:09:41.411Z,5.88
2023-01-27T20:12:45.984Z,5.81
2023-01-27T20:15:50.187Z,6.05
2023-01-27T20:18:54.971Z,5.98
2023-01-27T20:22:01.812Z,5.94
2023-01-27T20:25:06.596Z,5.93
2023-01-27T20:28:11.400Z,5.91
2023-01-27T20:31:16.906Z,6.04
2023-01-27T20:34:21.124Z,6.09
2023-01-27T20:37:27.037Z,5.80
2023-01-27T20:40:31.768Z,5.92
2023-01-27T20:43:36.509Z,6.01
2023-01-27T20:46:40.610Z,5.95
2023-01-27T20:49:45.593Z,6.02
2023-01-27T20:52:51.173Z,5.83
2023-01-27T20:55:57.838Z,6.05
2023-01-27T20:59:02.023Z,6.03
2023-01-27T21:02:06.304Z,5.96
2023-01-27T21:05:11.572Z,6.03
2023-01-27T21:08:17.399Z,5.97
2023-01-27T21:11:21.888Z,5.98
2023-01-27T21:14:26.380Z,6.06
2023-01-27T21:17:30.520Z,6.02
2023-01-27T21:20:34.562Z,6.12
2023-01-27T21:23:40.609Z,6.12
2023-01-27T21:26:44.723Z,6.07
2023-01-27T21:29:48.791Z,6.05
2023-01-27T21:32:53.007Z,6.28
2023-01-27T21:35:57.237Z,6.25
2023-01-27T21:39:02.921Z,6.27
2023-01-27T21:42:24.143Z,6.23
2023-01-27T21:45:29.057Z,6.14
2023-01-27T21:48:33.302Z,5.99
2023-01-27T21:51:37.534Z,6.13
2023-01-27T21:54:43.166Z,6.15
2023-01-27T21:57:48.783Z,6.09
2023-01-27T22:00:52.862Z,5.94
2023-01-27T22:03:57.047Z,5.96
2023-01-27T22:07:01.245Z,5.92
2023-01-27T22:10:08.146Z,5.91
2023-01-27T22:13:12.309Z,5.84
2023-01-27T22:16:16.679Z,6.02
2023-01-27T22:19:20.912Z,5.99
2023-01-27T22:22:25.014Z,5.78
2023-01-27T22:25:30.661Z,5.95
2023-01-27T22:28:34.833Z,5.77
2023-01-27T22:31:40.568Z,5.74
2023-01-27T22:34:44.868Z,5.96
2023-01-27T22:37:50.289Z,5.80
2023-01-27T22:40:59.481Z,5.91
2023-01-27T22:44:03.664Z,5.91
2023-01-27T22:47:08.033Z,5.80
2023-01-27T22:50:13.583Z,5.90
2023-01-27T22:53:17.861Z,5.96
2023-01-27T22:56:23.556Z,5.87
2023-01-27T22:59:27.863Z,5.84
2023-01-27T23:02:32.102Z,5.70
2023-01-27T23:05:36.348Z,5.89
2023-01-27T23:08:40.527Z,5.72
2023-01-27T23:11:46.499Z,5.81
2023-01-27T23:14:50.740Z,5.78
2023-01-27T23:17:54.786Z,5.77
2023-01-27T23:21:04.598Z,5.88
2023-01-27T23:24:08.789Z,6.03
2023-01-27T23:27:14.505Z,5.99
2023-01-27T23:30:20.189Z,5.86
2023-01-27T23:33:25.406Z,5.81
2023-01-27T23:36:29.394Z,5.64
2023-01-27T23:39:33.558Z,5.68
2023-01-27T23:42:39.019Z,5.66
2023-01-27T23:45:43.205Z,5.74
2023-01-27T23:48:51.865Z,5.67
2023-01-27T23:51:56.125Z,5.38
2023-01-27T23:55:00.425Z,5.49
2023-01-27T23:58:05.878Z,5.55
